createdAt,value
2016-07-31T00:00:04.289Z,0
2016-07-31T00:01:04.267Z,0
2016-07-31T00:02:04.253Z,0
2016-07-31T00:03:04.234Z,0
2016-07-31T00:04:04.209Z,0
2016-07-31T00:05:04.196Z,0
2016-07-31T00:06:04.181Z,0
2016-07-31T00:07:04.153Z,0
2016-07-31T00:08:04.142Z,0
2016-07-31T00:09:04.124Z,0
2016-07-31T00:10:04.099Z,0
2016-07-31T00:11:04.087Z,0
2016-07-31T00:12:04.067Z,0
2016-07-31T00:13:04.058Z,0
2016-07-31T00:14:04.032Z,0
2016-07-31T00:15:04.005Z,0
2016-07-31T00:16:03.992Z,0
2016-07-31T00:17:03.974Z,0
2016-07-31T00:18:03.955Z,0
2016-07-31T00:19:03.932Z,0
2016-07-31T00:20:03.914Z,0
2016-07-31T00:21:03.897Z,0
2016-07-31T00:22:03.882Z,0
2016-07-31T00:23:03.857Z,0
2016-07-31T00:24:03.834Z,0
2016-07-31T00:25:03.819Z,0
2016-07-31T00:26:03.802Z,0
2016-07-31T00:27:03.785Z,0
2016-07-31T00:28:03.767Z,0
2016-07-31T00:29:03.749Z,0
2016-07-31T00:30:03.727Z,0
2016-07-31T00:31:03.708Z,0
2016-07-31T00:32:03.706Z,0
2016-07-31T00:33:03.677Z,0
2016-07-31T00:34:04.343Z,0
2016-07-31T00:35:03.630Z,0
2016-07-31T00:36:03.614Z,0
2016-07-31T00:37:03.596Z,0
2016-07-31T00:38:03.585Z,0
2016-07-31T00:39:03.560Z,0
2016-07-31T00:40:04.928Z,0
2016-07-31T00:41:03.525Z,0
2016-07-31T00:42:03.507Z,0
2016-07-31T00:43:03.713Z,0
2016-07-31T00:44:03.465Z,0
2016-07-31T00:45:03.443Z,0
2016-07-31T00:46:03.433Z,0
2016-07-31T00:47:03.409Z,0
2016-07-31T00:48:04.081Z,0
2016-07-31T00:49:03.371Z,0
2016-07-31T00:50:04.044Z,0
2016-07-31T00:51:03.332Z,0
2016-07-31T00:52:03.316Z,0
2016-07-31T00:53:03.295Z,0
2016-07-31T00:54:03.278Z,0
2016-07-31T00:55:03.257Z,0
2016-07-31T00:56:03.242Z,0
2016-07-31T00:57:03.226Z,0
2016-07-31T00:59:03.184Z,0
2016-07-31T01:00:03.165Z,0
2016-07-31T01:01:03.140Z,0
2016-07-31T01:02:03.130Z,0
2016-07-31T01:03:03.107Z,0
2016-07-31T01:04:03.087Z,0
2016-07-31T01:05:03.083Z,0
2016-07-31T01:06:03.054Z,0
2016-07-31T01:07:03.029Z,0
2016-07-31T01:08:03.064Z,0
2016-07-31T01:09:02.997Z,0
2016-07-31T01:10:02.969Z,0
2016-07-31T01:11:02.965Z,0
2016-07-31T01:12:02.930Z,0
2016-07-31T01:14:02.892Z,0
2016-07-31T01:15:02.897Z,0
2016-07-31T01:16:02.851Z,0
2016-07-31T01:17:02.834Z,0
2016-07-31T01:18:02.811Z,0
2016-07-31T01:19:02.793Z,0
2016-07-31T01:20:02.774Z,0
2016-07-31T01:21:02.756Z,0
2016-07-31T01:22:02.739Z,0
2016-07-31T01:23:02.728Z,0
2016-07-31T01:24:02.699Z,0
2016-07-31T01:25:02.693Z,0
2016-07-31T01:26:02.664Z,0
2016-07-31T01:27:02.650Z,0
2016-07-31T01:29:02.602Z,0
2016-07-31T01:30:02.583Z,0
2016-07-31T01:31:02.565Z,0
2016-07-31T01:32:02.547Z,0
2016-07-31T01:33:03.220Z,0
2016-07-31T01:34:02.509Z,0
2016-07-31T01:35:02.489Z,0
2016-07-31T01:36:02.467Z,0
2016-07-31T01:37:02.444Z,0
2016-07-31T01:38:02.423Z,0
2016-07-31T01:39:02.418Z,0
2016-07-31T01:40:02.392Z,0
2016-07-31T01:41:02.377Z,0
2016-07-31T01:42:02.346Z,0
2016-07-31T01:44:02.314Z,0
2016-07-31T01:45:02.290Z,0
2016-07-31T01:46:02.277Z,0
2016-07-31T01:47:02.251Z,0
2016-07-31T01:48:02.232Z,0
2016-07-31T01:49:02.210Z,0
2016-07-31T01:50:02.207Z,0
2016-07-31T01:51:02.185Z,0
2016-07-31T01:52:02.151Z,0
2016-07-31T01:53:02.135Z,0
2016-07-31T01:54:02.120Z,0
2016-07-31T01:55:02.113Z,0
2016-07-31T01:56:02.074Z,0
2016-07-31T01:57:02.057Z,0
2016-07-31T01:58:02.038Z,0
2016-07-31T01:59:02.017Z,0
2016-07-31T02:00:02.002Z,0
2016-07-31T02:01:01.978Z,0
2016-07-31T02:02:01.957Z,0
2016-07-31T02:03:01.937Z,0
2016-07-31T02:04:01.913Z,0
2016-07-31T02:05:01.901Z,0
2016-07-31T02:06:01.879Z,0
2016-07-31T02:07:01.858Z,0
2016-07-31T02:08:01.898Z,0
2016-07-31T02:09:01.819Z,0
2016-07-31T02:10:01.804Z,0
2016-07-31T02:11:01.784Z,0
2016-07-31T02:12:01.764Z,0
2016-07-31T02:13:01.752Z,0
2016-07-31T02:14:01.732Z,0
2016-07-31T02:15:01.709Z,0
2016-07-31T02:16:01.678Z,0
2016-07-31T02:17:01.665Z,0
2016-07-31T02:18:01.648Z,0
2016-07-31T02:19:01.626Z,0
2016-07-31T02:20:01.604Z,0
2016-07-31T02:21:01.589Z,0
2016-07-31T02:22:01.568Z,0
2016-07-31T02:23:01.546Z,0
2016-07-31T02:24:01.527Z,0
2016-07-31T02:25:01.512Z,0
2016-07-31T02:26:01.494Z,0
2016-07-31T02:27:01.470Z,0
2016-07-31T02:28:01.450Z,0
2016-07-31T02:29:01.426Z,0
2016-07-31T02:30:01.412Z,0
2016-07-31T02:31:01.394Z,0
2016-07-31T02:32:01.373Z,0
2016-07-31T02:33:01.352Z,0
2016-07-31T02:34:01.339Z,0
2016-07-31T02:35:01.315Z,0
2016-07-31T02:36:01.298Z,0
2016-07-31T02:37:01.280Z,0
2016-07-31T02:38:01.255Z,0
2016-07-31T02:39:01.940Z,0
2016-07-31T02:40:01.218Z,0
2016-07-31T02:41:01.199Z,0
2016-07-31T02:42:01.177Z,0
2016-07-31T02:43:01.158Z,0
2016-07-31T02:44:01.140Z,0
2016-07-31T02:45:01.120Z,0
2016-07-31T02:46:01.102Z,0
2016-07-31T02:47:01.079Z,0
2016-07-31T02:48:01.063Z,0
2016-07-31T02:49:01.044Z,0
2016-07-31T02:50:01.018Z,0
2016-07-31T02:51:01.003Z,0
2016-07-31T02:52:00.987Z,0
2016-07-31T02:53:00.964Z,0
2016-07-31T02:54:00.947Z,0
2016-07-31T02:55:00.928Z,0
2016-07-31T02:56:00.910Z,0
2016-07-31T02:57:00.906Z,0
2016-07-31T02:58:00.864Z,0
2016-07-31T02:59:00.844Z,0
2016-07-31T03:00:00.832Z,0
2016-07-31T03:01:00.810Z,0
2016-07-31T03:02:00.786Z,0
2016-07-31T03:03:00.770Z,0
2016-07-31T03:04:00.761Z,0
2016-07-31T03:05:00.735Z,0
2016-07-31T03:06:00.717Z,0
2016-07-31T03:07:00.746Z,0
2016-07-31T03:08:00.761Z,0
2016-07-31T03:09:00.667Z,0
2016-07-31T03:10:00.695Z,0
2016-07-31T03:11:00.657Z,0
2016-07-31T03:12:00.592Z,0
2016-07-31T03:13:00.606Z,0
2016-07-31T03:14:00.599Z,0
2016-07-31T03:15:00.596Z,0
2016-07-31T03:16:00.574Z,0
2016-07-31T03:17:00.590Z,0
2016-07-31T03:18:01.252Z,0
2016-07-31T03:19:00.511Z,0
2016-07-31T03:20:00.491Z,0
2016-07-31T03:21:00.505Z,0
2016-07-31T03:22:00.427Z,0
2016-07-31T03:23:00.451Z,0
2016-07-31T03:24:00.366Z,0
2016-07-31T03:25:00.391Z,0
2016-07-31T03:26:00.353Z,0
2016-07-31T03:27:00.353Z,0
2016-07-31T03:28:00.303Z,0
2016-07-31T03:29:00.326Z,0
2016-07-31T03:30:00.285Z,0
2016-07-31T03:31:00.274Z,0
2016-07-31T03:32:00.255Z,0
2016-07-31T03:33:00.228Z,0
2016-07-31T03:34:00.246Z,0
2016-07-31T03:35:00.176Z,0
2016-07-31T03:36:00.183Z,0
2016-07-31T03:37:00.187Z,0
2016-07-31T03:38:00.135Z,0
2016-07-31T03:39:00.154Z,0
2016-07-31T03:40:00.132Z,0
2016-07-31T03:41:00.090Z,5
2016-07-31T03:42:00.134Z,5
2016-07-31T03:43:00.062Z,5
2016-07-31T03:43:59.998Z,5
2016-07-31T03:45:00.034Z,5
2016-07-31T03:45:59.986Z,5
2016-07-31T03:46:59.928Z,10
2016-07-31T03:47:59.918Z,10
2016-07-31T03:48:59.892Z,10
2016-07-31T03:49:59.873Z,10
2016-07-31T03:50:59.852Z,15
2016-07-31T03:51:59.829Z,15
2016-07-31T03:53:00.509Z,15
2016-07-31T03:53:59.794Z,15
2016-07-31T03:54:59.770Z,15
2016-07-31T03:55:59.756Z,15
2016-07-31T03:56:59.736Z,15
2016-07-31T03:57:59.717Z,15
2016-07-31T03:58:59.704Z,15
2016-07-31T03:59:59.683Z,20
2016-07-31T04:00:59.661Z,20
2016-07-31T04:01:59.639Z,20
2016-07-31T04:02:59.619Z,25
2016-07-31T04:03:59.606Z,25
2016-07-31T04:04:59.590Z,25
2016-07-31T04:05:59.564Z,30
2016-07-31T04:06:59.548Z,30
2016-07-31T04:07:59.532Z,35
2016-07-31T04:08:59.522Z,35
2016-07-31T04:09:59.492Z,40
2016-07-31T04:10:59.473Z,45
2016-07-31T04:11:59.446Z,45
2016-07-31T04:12:59.431Z,50
2016-07-31T04:13:59.409Z,50
2016-07-31T04:14:59.398Z,55
2016-07-31T04:15:59.374Z,55
2016-07-31T04:16:59.349Z,60
2016-07-31T04:17:59.335Z,65
2016-07-31T04:18:59.317Z,70
2016-07-31T04:19:59.295Z,75
2016-07-31T04:20:59.278Z,80
2016-07-31T04:21:59.259Z,85
2016-07-31T04:22:59.249Z,85
2016-07-31T04:23:59.220Z,85
2016-07-31T04:24:59.204Z,80
2016-07-31T04:25:59.181Z,80
2016-07-31T04:26:59.169Z,75
2016-07-31T04:27:59.844Z,80
2016-07-31T04:28:59.136Z,80
2016-07-31T04:29:59.111Z,80
2016-07-31T04:30:59.786Z,85
2016-07-31T04:31:59.066Z,90
2016-07-31T04:32:59.051Z,95
2016-07-31T04:33:59.031Z,95
2016-07-31T04:34:59.012Z,100
2016-07-31T04:35:58.995Z,105
2016-07-31T04:36:58.974Z,110
2016-07-31T04:37:58.959Z,115
2016-07-31T04:38:58.941Z,120
2016-07-31T04:39:58.912Z,130
2016-07-31T04:40:58.909Z,135
2016-07-31T04:41:58.879Z,140
2016-07-31T04:42:58.867Z,150
2016-07-31T04:43:58.835Z,160
2016-07-31T04:44:58.821Z,165
2016-07-31T04:45:59.493Z,170
2016-07-31T04:46:58.787Z,180
2016-07-31T04:47:58.771Z,185
2016-07-31T04:48:58.748Z,195
2016-07-31T04:49:58.733Z,200
2016-07-31T04:50:58.716Z,205
2016-07-31T04:51:58.695Z,210
2016-07-31T04:52:58.673Z,215
2016-07-31T04:53:59.353Z,210
2016-07-31T04:54:58.638Z,210
2016-07-31T04:55:58.624Z,205
2016-07-31T04:56:58.600Z,195
2016-07-31T04:57:58.585Z,190
2016-07-31T04:59:58.545Z,175
2016-07-31T05:00:58.530Z,175
2016-07-31T05:01:58.504Z,175
2016-07-31T05:02:58.489Z,180
2016-07-31T05:03:58.476Z,175
2016-07-31T05:04:58.449Z,180
2016-07-31T05:05:58.435Z,185
2016-07-31T05:06:58.418Z,185
2016-07-31T05:07:58.399Z,190
2016-07-31T05:08:58.373Z,190
2016-07-31T05:09:58.370Z,190
2016-07-31T05:10:58.342Z,195
2016-07-31T05:11:58.326Z,195
2016-07-31T05:12:58.307Z,200
2016-07-31T05:14:58.270Z,220
2016-07-31T05:15:58.251Z,230
2016-07-31T05:16:58.228Z,235
2016-07-31T05:17:58.215Z,240
2016-07-31T05:18:58.197Z,240
2016-07-31T05:19:58.171Z,240
2016-07-31T05:20:58.169Z,235
2016-07-31T05:21:58.142Z,230
2016-07-31T05:22:58.120Z,220
2016-07-31T05:23:58.111Z,215
2016-07-31T05:24:58.087Z,215
2016-07-31T05:25:58.067Z,220
2016-07-31T05:26:58.059Z,220
2016-07-31T05:27:58.035Z,225
2016-07-31T05:28:58.013Z,230
2016-07-31T05:29:57.991Z,235
2016-07-31T05:30:57.975Z,230
2016-07-31T05:31:57.964Z,225
2016-07-31T05:32:57.945Z,215
2016-07-31T05:33:57.927Z,210
2016-07-31T05:34:57.906Z,215
2016-07-31T05:35:57.894Z,230
2016-07-31T05:36:57.865Z,235
2016-07-31T05:37:57.853Z,230
2016-07-31T05:38:57.836Z,225
2016-07-31T05:39:57.815Z,240
2016-07-31T05:40:57.797Z,255
2016-07-31T05:41:57.780Z,255
2016-07-31T05:42:57.756Z,240
2016-07-31T05:43:57.751Z,230
2016-07-31T05:44:57.723Z,245
2016-07-31T05:45:57.708Z,280
2016-07-31T05:46:57.687Z,280
2016-07-31T05:47:57.670Z,285
2016-07-31T05:48:57.653Z,295
2016-07-31T05:49:57.634Z,285
2016-07-31T05:50:57.613Z,280
2016-07-31T05:51:57.603Z,275
2016-07-31T05:52:57.584Z,275
2016-07-31T05:53:57.569Z,270
2016-07-31T05:54:57.545Z,255
2016-07-31T05:55:57.533Z,275
2016-07-31T05:56:57.512Z,290
2016-07-31T05:57:57.504Z,300
2016-07-31T05:58:57.475Z,300
2016-07-31T05:59:57.456Z,295
2016-07-31T06:00:57.443Z,285
2016-07-31T06:01:57.422Z,270
2016-07-31T06:02:58.104Z,260
2016-07-31T06:03:57.391Z,280
2016-07-31T06:04:57.380Z,300
2016-07-31T06:05:57.351Z,310
2016-07-31T06:06:57.334Z,305
2016-07-31T06:07:57.314Z,285
2016-07-31T06:08:57.296Z,260
2016-07-31T06:09:57.294Z,245
2016-07-31T06:10:57.266Z,265
2016-07-31T06:11:57.247Z,280
2016-07-31T06:12:57.231Z,285
2016-07-31T06:13:57.212Z,260
2016-07-31T06:14:57.192Z,230
2016-07-31T06:15:57.187Z,230
2016-07-31T06:16:57.160Z,230
2016-07-31T06:17:57.842Z,260
2016-07-31T06:18:57.135Z,275
2016-07-31T06:19:57.109Z,310
2016-07-31T06:20:57.087Z,335
2016-07-31T06:21:57.771Z,345
2016-07-31T06:22:57.059Z,360
2016-07-31T06:23:57.734Z,365
2016-07-31T06:24:57.020Z,345
2016-07-31T06:25:57.013Z,320
2016-07-31T06:26:56.993Z,320
2016-07-31T06:27:56.970Z,370
2016-07-31T06:28:56.954Z,410
2016-07-31T06:29:56.940Z,470
2016-07-31T06:30:56.919Z,530
2016-07-31T06:31:56.901Z,545
2016-07-31T06:32:56.878Z,530
2016-07-31T06:33:56.870Z,490
2016-07-31T06:34:56.856Z,495
2016-07-31T06:35:56.835Z,545
2016-07-31T06:36:56.811Z,540
2016-07-31T06:37:56.803Z,545
2016-07-31T06:38:56.783Z,585
2016-07-31T06:39:56.761Z,630
2016-07-31T06:40:56.750Z,610
2016-07-31T06:41:56.735Z,555
2016-07-31T06:42:56.713Z,560
2016-07-31T06:43:56.704Z,585
2016-07-31T06:44:56.680Z,620
2016-07-31T06:45:56.678Z,655
2016-07-31T06:46:56.651Z,690
2016-07-31T06:47:56.636Z,715
2016-07-31T06:48:56.619Z,735
2016-07-31T06:49:56.607Z,745
2016-07-31T06:50:56.589Z,755
2016-07-31T06:51:56.569Z,765
2016-07-31T06:52:56.555Z,770
2016-07-31T06:53:56.532Z,770
2016-07-31T06:54:56.522Z,775
2016-07-31T06:55:56.515Z,780
2016-07-31T06:56:56.484Z,795
2016-07-31T06:57:56.471Z,795
2016-07-31T06:58:56.459Z,800
2016-07-31T06:59:56.435Z,790
2016-07-31T07:00:56.439Z,760
2016-07-31T07:01:56.413Z,715
2016-07-31T07:02:56.390Z,695
2016-07-31T07:03:56.381Z,675
2016-07-31T07:04:56.363Z,670
2016-07-31T07:05:56.345Z,695
2016-07-31T07:06:56.332Z,705
2016-07-31T07:07:56.316Z,680
2016-07-31T07:08:56.300Z,650
2016-07-31T07:09:56.285Z,645
2016-07-31T07:10:56.272Z,650
2016-07-31T07:11:56.247Z,650
2016-07-31T07:12:56.240Z,645
2016-07-31T07:13:56.226Z,640
2016-07-31T07:14:56.208Z,605
2016-07-31T07:15:56.192Z,570
2016-07-31T07:16:56.178Z,525
2016-07-31T07:17:56.192Z,485
2016-07-31T07:18:56.141Z,520
2016-07-31T07:19:56.135Z,575
2016-07-31T07:20:56.119Z,590
2016-07-31T07:21:56.791Z,580
2016-07-31T07:22:56.085Z,560
2016-07-31T07:23:56.067Z,535
2016-07-31T07:24:56.046Z,525
2016-07-31T07:25:56.035Z,535
2016-07-31T07:26:56.020Z,530
2016-07-31T07:27:55.996Z,530
2016-07-31T07:28:55.986Z,570
2016-07-31T07:29:55.976Z,660
2016-07-31T07:30:55.961Z,740
2016-07-31T07:31:55.957Z,760
2016-07-31T07:32:55.929Z,715
2016-07-31T07:33:55.910Z,665
2016-07-31T07:34:55.897Z,615
2016-07-31T07:35:55.878Z,550
2016-07-31T07:36:55.861Z,520
2016-07-31T07:37:55.851Z,560
2016-07-31T07:38:56.524Z,660
2016-07-31T07:39:55.813Z,745
2016-07-31T07:40:55.801Z,755
2016-07-31T07:41:55.791Z,720
2016-07-31T07:42:55.772Z,765
2016-07-31T07:43:55.753Z,895
2016-07-31T07:44:55.739Z,1025
2016-07-31T07:45:56.418Z,1115
2016-07-31T07:46:55.711Z,1170
2016-07-31T07:47:55.687Z,1205
2016-07-31T07:48:55.687Z,1220
2016-07-31T07:49:55.665Z,1185
2016-07-31T07:50:55.643Z,1175
2016-07-31T07:51:55.632Z,1225
2016-07-31T07:52:55.618Z,1230
2016-07-31T07:53:55.600Z,1160
2016-07-31T07:54:56.284Z,1085
2016-07-31T07:55:55.572Z,1040
2016-07-31T07:56:56.249Z,1000
2016-07-31T07:57:55.550Z,935
2016-07-31T07:58:55.534Z,860
2016-07-31T07:59:55.517Z,825
2016-07-31T08:00:55.506Z,780
2016-07-31T08:01:55.490Z,740
2016-07-31T08:02:55.471Z,740
2016-07-31T08:03:55.472Z,775
2016-07-31T08:04:55.453Z,825
2016-07-31T08:05:55.433Z,830
2016-07-31T08:06:55.421Z,825
2016-07-31T08:07:55.404Z,850
2016-07-31T08:08:55.391Z,910
2016-07-31T08:09:55.383Z,905
2016-07-31T08:10:55.359Z,900
2016-07-31T08:11:55.348Z,880
2016-07-31T08:12:55.335Z,910
2016-07-31T08:13:55.317Z,970
2016-07-31T08:14:55.308Z,995
2016-07-31T08:15:55.296Z,980
2016-07-31T08:16:55.276Z,965
2016-07-31T08:17:55.267Z,1010
2016-07-31T08:18:55.250Z,1045
2016-07-31T08:19:55.234Z,1055
2016-07-31T08:20:55.228Z,1030
2016-07-31T08:21:55.212Z,995
2016-07-31T08:22:55.192Z,980
2016-07-31T08:23:55.181Z,990
2016-07-31T08:24:55.164Z,995
2016-07-31T08:25:55.150Z,985
2016-07-31T08:26:55.136Z,990
2016-07-31T08:27:55.124Z,995
2016-07-31T08:28:55.113Z,1015
2016-07-31T08:29:55.098Z,1050
2016-07-31T08:30:55.082Z,1065
2016-07-31T08:31:55.077Z,1085
2016-07-31T08:32:55.751Z,1110
2016-07-31T08:33:55.041Z,1125
2016-07-31T08:34:55.033Z,1180
2016-07-31T08:35:55.015Z,1225
2016-07-31T08:36:55.696Z,1270
2016-07-31T08:37:54.983Z,1290
2016-07-31T08:38:54.971Z,1305
2016-07-31T08:39:54.961Z,1345
2016-07-31T08:40:54.945Z,1550
2016-07-31T08:41:56.112Z,1480
2016-07-31T08:42:55.108Z,1560
2016-07-31T08:43:54.903Z,1525
2016-07-31T08:44:54.889Z,1455
2016-07-31T08:45:54.878Z,1430
2016-07-31T08:46:54.863Z,1400
2016-07-31T08:47:54.845Z,1345
2016-07-31T08:48:54.845Z,1385
2016-07-31T08:49:54.822Z,1455
2016-07-31T08:50:54.807Z,1720
2016-07-31T08:51:54.791Z,1605
2016-07-31T08:52:54.784Z,1585
2016-07-31T08:53:54.764Z,1550
2016-07-31T08:54:54.753Z,1535
2016-07-31T08:55:54.739Z,1565
2016-07-31T08:56:54.725Z,1485
2016-07-31T08:57:54.719Z,1340
2016-07-31T08:58:54.704Z,1275
2016-07-31T08:59:54.683Z,1520
2016-07-31T09:00:54.680Z,1620
2016-07-31T09:01:54.663Z,2575
2016-07-31T09:02:54.654Z,1905
2016-07-31T09:03:54.641Z,1865
2016-07-31T09:04:54.626Z,1555
2016-07-31T09:05:54.619Z,1285
2016-07-31T09:06:54.609Z,1195
2016-07-31T09:07:54.595Z,1170
2016-07-31T09:08:54.583Z,1165
2016-07-31T09:09:54.568Z,1190
2016-07-31T09:10:54.563Z,1150
2016-07-31T09:11:54.544Z,1080
2016-07-31T09:12:54.535Z,1045
2016-07-31T09:13:54.519Z,975
2016-07-31T09:15:54.495Z,825
2016-07-31T09:16:54.489Z,800
2016-07-31T09:17:54.474Z,840
2016-07-31T09:18:54.456Z,885
2016-07-31T09:19:54.453Z,885
2016-07-31T09:20:54.437Z,880
2016-07-31T09:21:54.424Z,885
2016-07-31T09:22:54.413Z,925
2016-07-31T09:23:54.396Z,940
2016-07-31T09:24:54.377Z,935
2016-07-31T09:25:54.369Z,910
2016-07-31T09:26:54.355Z,905
2016-07-31T09:27:54.339Z,895
2016-07-31T09:28:54.327Z,870
2016-07-31T09:30:54.307Z,920
2016-07-31T09:31:54.286Z,1000
2016-07-31T09:32:54.281Z,1070
2016-07-31T09:33:54.256Z,1135
2016-07-31T09:34:54.248Z,1175
2016-07-31T09:35:54.229Z,1180
2016-07-31T09:36:54.218Z,1185
2016-07-31T09:37:54.206Z,1155
2016-07-31T09:38:54.184Z,1145
2016-07-31T09:39:54.179Z,1215
2016-07-31T09:40:54.161Z,1290
2016-07-31T09:41:54.151Z,1335
2016-07-31T09:42:54.130Z,1385
2016-07-31T09:43:54.126Z,1430
2016-07-31T09:44:54.106Z,1460
2016-07-31T09:45:54.087Z,1500
2016-07-31T09:46:54.080Z,1540
2016-07-31T09:47:54.062Z,1650
2016-07-31T09:48:54.047Z,1710
2016-07-31T09:49:54.043Z,1680
2016-07-31T09:50:54.028Z,1550
2016-07-31T09:51:54.009Z,1460
2016-07-31T09:52:54.003Z,1430
2016-07-31T09:53:53.987Z,1425
2016-07-31T09:54:53.982Z,1425
2016-07-31T09:55:53.963Z,1385
2016-07-31T09:56:53.945Z,1315
2016-07-31T09:57:53.949Z,1245
2016-07-31T09:58:53.928Z,1235
2016-07-31T09:59:53.916Z,1280
2016-07-31T10:00:53.899Z,1270
2016-07-31T10:01:53.883Z,1225
2016-07-31T10:02:53.877Z,1130
2016-07-31T10:03:53.863Z,1015
2016-07-31T10:04:53.851Z,925
2016-07-31T10:05:53.841Z,925
2016-07-31T10:06:53.818Z,950
2016-07-31T10:07:53.811Z,980
2016-07-31T10:08:53.796Z,1035
2016-07-31T10:09:53.783Z,1095
2016-07-31T10:10:53.772Z,1150
2016-07-31T10:11:53.760Z,1195
2016-07-31T10:12:53.740Z,1230
2016-07-31T10:13:53.745Z,1240
2016-07-31T10:14:53.721Z,1255
2016-07-31T10:15:53.706Z,1255
2016-07-31T10:16:53.697Z,1235
2016-07-31T10:17:53.693Z,1250
2016-07-31T10:18:53.665Z,1280
2016-07-31T10:19:53.656Z,1320
2016-07-31T10:20:53.641Z,1415
2016-07-31T10:21:53.624Z,1525
2016-07-31T10:22:53.613Z,1615
2016-07-31T10:23:53.601Z,1680
2016-07-31T10:24:53.590Z,1715
2016-07-31T10:25:53.575Z,1725
2016-07-31T10:26:53.565Z,1745
2016-07-31T10:27:53.547Z,1810
2016-07-31T10:28:53.541Z,1800
2016-07-31T10:29:53.532Z,1875
2016-07-31T10:30:53.583Z,1985
2016-07-31T10:31:53.507Z,1990
2016-07-31T10:32:53.491Z,2075
2016-07-31T10:33:53.481Z,3740
2016-07-31T10:34:53.471Z,3060
2016-07-31T10:35:53.456Z,1340
2016-07-31T10:36:53.451Z,1045
2016-07-31T10:37:53.434Z,815
2016-07-31T10:38:53.425Z,725
2016-07-31T10:39:53.411Z,720
2016-07-31T10:40:53.401Z,760
2016-07-31T10:41:53.390Z,850
2016-07-31T10:42:53.379Z,970
2016-07-31T10:43:53.365Z,1145
2016-07-31T10:44:53.364Z,1350
2016-07-31T10:45:53.336Z,1560
2016-07-31T10:46:54.034Z,1715
2016-07-31T10:47:53.319Z,1730
2016-07-31T10:48:53.307Z,1625
2016-07-31T10:49:53.311Z,1505
2016-07-31T10:50:53.274Z,1335
2016-07-31T10:51:53.263Z,1210
2016-07-31T10:52:53.254Z,1155
2016-07-31T10:53:53.241Z,1150
2016-07-31T10:54:53.223Z,1255
2016-07-31T10:55:53.219Z,1440
2016-07-31T10:56:53.212Z,1680
2016-07-31T10:57:53.195Z,1900
2016-07-31T10:58:53.193Z,2005
2016-07-31T10:59:53.165Z,2100
2016-07-31T11:00:53.152Z,2080
2016-07-31T11:01:53.147Z,2185
2016-07-31T11:02:53.133Z,2140
2016-07-31T11:03:53.121Z,2055
2016-07-31T11:04:53.108Z,1985
2016-07-31T11:05:53.096Z,1970
2016-07-31T11:06:53.093Z,1915
2016-07-31T11:07:53.081Z,1870
2016-07-31T11:08:53.753Z,1815
2016-07-31T11:09:53.053Z,1680
2016-07-31T11:10:53.041Z,1570
2016-07-31T11:11:53.026Z,1490
2016-07-31T11:12:53.021Z,1435
2016-07-31T11:13:53.010Z,1395
2016-07-31T11:14:52.992Z,1355
2016-07-31T11:15:52.985Z,1315
2016-07-31T11:16:52.975Z,1285
2016-07-31T11:17:52.955Z,1210
2016-07-31T11:18:52.948Z,1150
2016-07-31T11:19:52.938Z,1090
2016-07-31T11:20:52.921Z,1040
2016-07-31T11:21:52.911Z,1005
2016-07-31T11:22:52.898Z,985
2016-07-31T11:23:52.882Z,965
2016-07-31T11:24:53.568Z,925
2016-07-31T11:25:52.863Z,900
2016-07-31T11:26:52.907Z,875
2016-07-31T11:27:52.839Z,840
2016-07-31T11:28:52.826Z,810
2016-07-31T11:29:52.811Z,780
2016-07-31T11:30:52.800Z,760
2016-07-31T11:31:52.783Z,760
2016-07-31T11:32:52.770Z,780
2016-07-31T11:33:52.759Z,795
2016-07-31T11:34:52.744Z,780
2016-07-31T11:35:52.734Z,755
2016-07-31T11:36:52.723Z,725
2016-07-31T11:37:52.702Z,695
2016-07-31T11:38:52.688Z,665
2016-07-31T11:39:52.687Z,640
2016-07-31T11:40:52.659Z,620
2016-07-31T11:41:52.646Z,600
2016-07-31T11:42:52.634Z,565
2016-07-31T11:43:52.616Z,555
2016-07-31T11:44:52.600Z,565
2016-07-31T11:45:52.599Z,590
2016-07-31T11:46:52.569Z,635
2016-07-31T11:47:52.558Z,675
2016-07-31T11:48:52.552Z,675
2016-07-31T11:49:52.541Z,660
2016-07-31T11:50:52.508Z,650
2016-07-31T11:51:52.499Z,670
2016-07-31T11:52:52.483Z,680
2016-07-31T11:53:52.466Z,685
2016-07-31T11:54:52.458Z,685
2016-07-31T11:55:52.442Z,695
2016-07-31T11:56:52.424Z,705
2016-07-31T11:57:52.407Z,735
2016-07-31T11:58:52.391Z,785
2016-07-31T11:59:52.373Z,820
2016-07-31T12:00:52.370Z,855
2016-07-31T12:01:52.348Z,865
2016-07-31T12:02:53.017Z,870
2016-07-31T12:03:52.308Z,875
2016-07-31T12:04:52.298Z,870
2016-07-31T12:05:52.282Z,845
2016-07-31T12:06:52.273Z,815
2016-07-31T12:07:52.251Z,800
2016-07-31T12:08:52.232Z,790
2016-07-31T12:09:52.225Z,785
2016-07-31T12:10:52.202Z,770
2016-07-31T12:11:52.184Z,785
2016-07-31T12:12:52.169Z,800
2016-07-31T12:13:52.844Z,795
2016-07-31T12:14:52.148Z,765
2016-07-31T12:15:52.120Z,725
2016-07-31T12:16:52.104Z,690
2016-07-31T12:17:52.089Z,665
2016-07-31T12:18:52.070Z,650
2016-07-31T12:19:52.055Z,625
2016-07-31T12:20:52.042Z,610
2016-07-31T12:21:52.020Z,610
2016-07-31T12:22:52.007Z,625
2016-07-31T12:23:51.993Z,650
2016-07-31T12:24:51.975Z,680
2016-07-31T12:25:51.964Z,705
2016-07-31T12:26:51.943Z,725
2016-07-31T12:27:51.920Z,740
2016-07-31T12:28:51.905Z,745
2016-07-31T12:29:51.903Z,750
2016-07-31T12:30:51.872Z,760
2016-07-31T12:31:51.860Z,770
2016-07-31T12:32:51.841Z,780
2016-07-31T12:33:51.818Z,785
2016-07-31T12:34:51.818Z,770
2016-07-31T12:35:51.788Z,750
2016-07-31T12:36:51.777Z,710
2016-07-31T12:37:51.762Z,675
2016-07-31T12:38:51.737Z,640
2016-07-31T12:39:51.722Z,610
2016-07-31T12:40:51.706Z,580
2016-07-31T12:41:51.687Z,570
2016-07-31T12:42:51.667Z,555
2016-07-31T12:43:51.656Z,545
2016-07-31T12:44:51.636Z,545
2016-07-31T12:46:51.602Z,600
2016-07-31T12:47:52.408Z,645
2016-07-31T12:48:51.563Z,695
2016-07-31T12:49:51.548Z,720
2016-07-31T12:50:51.536Z,740
2016-07-31T12:51:51.511Z,750
2016-07-31T12:52:51.499Z,760
2016-07-31T12:53:51.483Z,770
2016-07-31T12:54:51.463Z,800
2016-07-31T12:55:51.451Z,845
2016-07-31T12:56:51.428Z,910
2016-07-31T12:57:51.413Z,985
2016-07-31T12:58:51.404Z,1065
2016-07-31T12:59:51.383Z,1105
2016-07-31T13:01:51.352Z,1175
2016-07-31T13:02:51.335Z,1220
2016-07-31T13:03:51.309Z,1275
2016-07-31T13:04:51.301Z,1335
2016-07-31T13:05:51.283Z,1420
2016-07-31T13:06:51.267Z,1420
2016-07-31T13:07:51.264Z,1380
2016-07-31T13:08:51.236Z,1360
2016-07-31T13:09:51.216Z,1480
2016-07-31T13:10:51.211Z,1385
2016-07-31T13:11:51.189Z,1355
2016-07-31T13:12:51.180Z,1405
2016-07-31T13:13:51.161Z,1895
2016-07-31T13:14:51.144Z,2545
2016-07-31T13:15:51.137Z,2935
2016-07-31T13:16:51.127Z,2380
2016-07-31T13:17:51.105Z,2205
2016-07-31T13:18:51.089Z,1940
2016-07-31T13:19:51.074Z,1775
2016-07-31T13:20:51.058Z,1675
2016-07-31T13:21:51.051Z,1630
2016-07-31T13:22:51.035Z,1650
2016-07-31T13:23:51.020Z,1615
2016-07-31T13:24:51.013Z,1580
2016-07-31T13:25:50.999Z,1600
2016-07-31T13:26:50.987Z,1430
2016-07-31T13:27:50.980Z,1310
2016-07-31T13:28:50.961Z,1190
2016-07-31T13:29:50.948Z,1085
2016-07-31T13:30:50.938Z,1035
2016-07-31T13:31:50.930Z,1010
2016-07-31T13:32:50.913Z,975
2016-07-31T13:33:50.895Z,965
2016-07-31T13:34:50.887Z,985
2016-07-31T13:35:50.880Z,1045
2016-07-31T13:36:50.855Z,1070
2016-07-31T13:37:50.850Z,1060
2016-07-31T13:38:50.834Z,1055
2016-07-31T13:39:50.823Z,1085
2016-07-31T13:40:50.808Z,1135
2016-07-31T13:41:50.799Z,1155
2016-07-31T13:42:50.782Z,1145
2016-07-31T13:43:50.765Z,1110
2016-07-31T13:44:50.754Z,1065
2016-07-31T13:45:50.736Z,1010
2016-07-31T13:46:50.737Z,975
2016-07-31T13:47:50.714Z,955
2016-07-31T13:48:50.696Z,950
2016-07-31T13:49:50.685Z,940
2016-07-31T13:50:50.678Z,900
2016-07-31T13:51:50.651Z,860
2016-07-31T13:52:50.646Z,820
2016-07-31T13:53:50.635Z,770
2016-07-31T13:54:50.611Z,735
2016-07-31T13:55:50.601Z,720
2016-07-31T13:56:50.598Z,705
2016-07-31T13:57:50.576Z,695
2016-07-31T13:58:50.557Z,690
2016-07-31T13:59:50.544Z,685
2016-07-31T14:00:50.526Z,680
2016-07-31T14:01:50.512Z,675
2016-07-31T14:02:50.495Z,670
2016-07-31T14:03:50.483Z,670
2016-07-31T14:04:50.471Z,675